createdAt,value
2018-06-14T00:02:20.057Z,5.47
2018-06-14T00:04:48.519Z,4.50
2018-06-14T00:07:17.072Z,6.87
2018-06-14T00:09:45.384Z,6.03
2018-06-14T00:12:13.948Z,6.83
2018-06-14T00:14:42.468Z,5.57
2018-06-14T00:17:10.866Z,6.30
2018-06-14T00:19:39.356Z,5.60
2018-06-14T00:22:07.868Z,8.23
2018-06-14T00:24:36.268Z,5.17
2018-06-14T00:27:05.054Z,6.77
2018-06-14T00:29:33.505Z,5.10
2018-06-14T00:32:02.076Z,8.03
2018-06-14T00:34:31.054Z,5.77
2018-06-14T00:36:59.493Z,6.83
2018-06-14T00:39:28.089Z,6.77
2018-06-14T00:41:56.484Z,6.50
2018-06-14T00:44:24.974Z,7.27
2018-06-14T00:46:53.467Z,6.73
2018-06-14T00:49:24.607Z,7.00
2018-06-14T00:51:53.149Z,7.73
2018-06-14T00:54:21.824Z,8.20
2018-06-14T00:56:55.808Z,6.13
2018-06-14T00:59:24.157Z,6.67
2018-06-14T01:01:52.384Z,6.83
2018-06-14T01:04:20.631Z,7.33
2018-06-14T01:06:48.872Z,7.80
2018-06-14T01:09:17.079Z,7.60
2018-06-14T01:11:45.447Z,7.67
2018-06-14T01:14:13.782Z,7.90
2018-06-14T01:16:42.102Z,7.50
2018-06-14T01:19:10.463Z,9.37
2018-06-14T01:21:38.812Z,7.07
2018-06-14T01:24:07.395Z,6.20
2018-06-14T01:26:35.748Z,7.03
2018-06-14T01:29:04.042Z,6.87
2018-06-14T01:31:32.355Z,7.93
2018-06-14T01:34:00.599Z,8.63
2018-06-14T01:36:28.939Z,8.23
2018-06-14T01:38:57.316Z,9.60
2018-06-14T01:41:25.581Z,7.73
2018-06-14T01:43:53.863Z,6.20
2018-06-14T01:46:22.247Z,7.77
2018-06-14T01:48:50.552Z,7.73
2018-06-14T01:51:18.915Z,7.03
2018-06-14T01:53:47.215Z,9.03
2018-06-14T01:56:15.442Z,8.10
2018-06-14T01:58:43.722Z,7.90
2018-06-14T02:01:12.041Z,9.57
2018-06-14T02:03:40.356Z,10.47
2018-06-14T02:06:08.740Z,10.23
2018-06-14T02:08:36.994Z,10.27
2018-06-14T02:11:05.394Z,10.27
2018-06-14T02:13:33.607Z,8.67
2018-06-14T02:16:02.627Z,9.77
2018-06-14T02:18:30.880Z,9.60
2018-06-14T02:20:59.316Z,11.50
2018-06-14T02:23:27.993Z,9.20
2018-06-14T02:25:56.387Z,9.40
2018-06-14T02:28:24.832Z,9.10
2018-06-14T02:30:53.155Z,11.13
2018-06-14T02:33:21.442Z,11.40
2018-06-14T02:35:49.834Z,10.87
2018-06-14T02:38:21.238Z,9.50
2018-06-14T02:40:49.730Z,10.57
2018-06-14T02:43:18.183Z,9.97
2018-06-14T02:45:46.492Z,11.13
2018-06-14T02:48:14.745Z,11.50
2018-06-14T02:50:43.004Z,12.20
2018-06-14T02:53:11.361Z,11.73
2018-06-14T02:55:39.735Z,13.23
2018-06-14T02:58:07.987Z,12.23
2018-06-14T03:00:36.304Z,9.53
2018-06-14T03:03:04.533Z,10.97
2018-06-14T03:05:32.828Z,9.30
2018-06-14T03:08:01.085Z,12.30
2018-06-14T03:10:29.417Z,11.37
2018-06-14T03:12:57.747Z,12.53
2018-06-14T03:15:26.419Z,13.10
2018-06-14T03:17:54.830Z,10.00
2018-06-14T03:20:28.417Z,10.93
2018-06-14T03:22:57.727Z,11.10
2018-06-14T03:25:26.067Z,11.30
2018-06-14T03:27:54.352Z,10.00
2018-06-14T03:30:22.686Z,11.87
2018-06-14T03:32:51.684Z,11.87
2018-06-14T03:35:21.055Z,11.00
2018-06-14T03:37:49.415Z,12.07
2018-06-14T03:40:17.769Z,11.10
2018-06-14T03:42:46.971Z,10.57
2018-06-14T03:45:21.523Z,11.90
2018-06-14T03:47:51.054Z,13.20
2018-06-14T03:50:19.435Z,14.80
2018-06-14T03:52:47.792Z,12.53
2018-06-14T03:55:16.029Z,9.60
2018-06-14T03:57:44.344Z,13.27
2018-06-14T04:00:12.714Z,14.57
2018-06-14T04:02:41.089Z,14.90
2018-06-14T04:05:09.471Z,12.17
2018-06-14T04:07:37.847Z,12.07
2018-06-14T04:10:06.238Z,14.20
2018-06-14T04:12:34.626Z,12.27
2018-06-14T04:15:03.952Z,14.77
2018-06-14T04:17:32.409Z,12.63
2018-06-14T04:20:00.655Z,13.97
2018-06-14T04:22:28.882Z,16.50
2018-06-14T04:24:57.134Z,13.00
2018-06-14T04:27:25.470Z,13.80
2018-06-14T04:29:53.754Z,14.90
2018-06-14T04:32:22.015Z,14.03
2018-06-14T04:34:50.441Z,12.73
2018-06-14T04:37:18.749Z,13.00
2018-06-14T04:39:47.060Z,14.17
2018-06-14T04:42:15.439Z,14.13
2018-06-14T04:44:43.768Z,14.57
2018-06-14T04:47:12.176Z,12.67
2018-06-14T04:49:40.495Z,12.40
2018-06-14T04:52:08.893Z,13.53
2018-06-14T04:54:37.368Z,15.10
2018-06-14T04:57:05.694Z,12.27
2018-06-14T04:59:33.942Z,13.50
2018-06-14T05:02:02.266Z,14.90
2018-06-14T05:04:30.570Z,11.30
2018-06-14T05:06:58.829Z,14.87
2018-06-14T05:09:27.194Z,12.40
2018-06-14T05:11:55.563Z,12.50
2018-06-14T05:14:23.963Z,11.73
2018-06-14T05:16:52.407Z,11.27
2018-06-14T05:19:20.733Z,11.90
2018-06-14T05:21:49.016Z,11.30
2018-06-14T05:24:18.359Z,11.37
2018-06-14T05:26:46.805Z,13.43
2018-06-14T05:29:15.196Z,10.37
2018-06-14T05:31:43.497Z,12.03
2018-06-14T05:34:11.919Z,11.70
2018-06-14T05:36:40.306Z,12.90
2018-06-14T05:39:09.819Z,13.00
2018-06-14T05:41:38.619Z,11.77
2018-06-14T05:44:06.937Z,8.00
2018-06-14T05:46:35.297Z,11.00
2018-06-14T05:49:03.965Z,10.30
2018-06-14T05:51:32.261Z,9.70
2018-06-14T05:54:00.686Z,10.30
2018-06-14T05:56:29.006Z,9.43
2018-06-14T05:58:57.397Z,11.20
2018-06-14T06:01:25.745Z,9.43
2018-06-14T06:03:54.147Z,8.43
2018-06-14T06:06:22.421Z,8.70
2018-06-14T06:08:50.776Z,9.67
2018-06-14T06:11:19.079Z,9.97
2018-06-14T06:13:47.418Z,9.40
2018-06-14T06:16:15.819Z,8.67
2018-06-14T06:18:44.236Z,10.10
2018-06-14T06:21:12.573Z,10.50
2018-06-14T06:23:40.889Z,8.53
2018-06-14T06:26:09.251Z,8.40
2018-06-14T06:28:38.425Z,10.20
2018-06-14T06:31:06.776Z,9.47
2018-06-14T06:33:35.513Z,9.30
2018-06-14T06:36:03.864Z,9.10
2018-06-14T06:38:32.299Z,6.37
2018-06-14T06:41:00.657Z,8.10
2018-06-14T06:43:28.935Z,7.30
2018-06-14T06:45:57.261Z,7.20
2018-06-14T06:48:25.683Z,7.30
2018-06-14T06:50:53.961Z,8.77
2018-06-14T06:53:22.392Z,7.03
2018-06-14T06:55:50.593Z,8.20
2018-06-14T06:58:19.015Z,9.23
2018-06-14T07:00:47.425Z,9.30
2018-06-14T07:03:15.964Z,10.43
2018-06-14T07:05:44.219Z,7.93
2018-06-14T07:08:12.702Z,7.57
2018-06-14T07:10:41.060Z,8.90
2018-06-14T07:13:09.495Z,8.97
2018-06-14T07:15:37.751Z,6.00
2018-06-14T07:18:06.230Z,8.57
2018-06-14T07:20:34.550Z,8.17
2018-06-14T07:23:02.795Z,6.87
2018-06-14T07:25:31.156Z,6.93
2018-06-14T07:27:59.486Z,7.40
2018-06-14T07:30:27.687Z,6.80
2018-06-14T07:32:55.905Z,5.77
2018-06-14T07:35:24.197Z,6.30
2018-06-14T07:37:52.918Z,6.37
2018-06-14T07:40:21.202Z,4.80
2018-06-14T07:42:49.655Z,6.00
2018-06-14T07:45:17.980Z,7.23
2018-06-14T07:47:48.706Z,7.80
2018-06-14T07:50:17.031Z,6.30
2018-06-14T07:52:45.427Z,7.10
2018-06-14T07:55:13.759Z,6.70
2018-06-14T07:57:42.058Z,5.03
2018-06-14T08:00:10.345Z,6.90
2018-06-14T08:02:38.711Z,6.97
2018-06-14T08:05:06.990Z,5.03
2018-06-14T08:07:35.361Z,7.73
2018-06-14T08:10:03.879Z,7.50
2018-06-14T08:12:32.308Z,6.40
2018-06-14T08:15:00.521Z,6.27
2018-06-14T08:17:29.775Z,7.80
2018-06-14T08:19:58.168Z,5.70
2018-06-14T08:22:26.450Z,6.13
2018-06-14T08:24:54.735Z,5.23
2018-06-14T08:27:23.063Z,6.07
2018-06-14T08:29:51.410Z,6.07
2018-06-14T08:32:19.852Z,6.43
2018-06-14T08:34:48.120Z,6.23
2018-06-14T08:37:16.572Z,5.10
2018-06-14T08:39:45.442Z,4.40
2018-06-14T08:42:13.739Z,4.33
2018-06-14T08:44:42.031Z,5.50
2018-06-14T08:47:10.259Z,6.57
2018-06-14T08:49:38.570Z,5.93
2018-06-14T08:52:06.853Z,4.97
2018-06-14T08:54:35.141Z,5.67
2018-06-14T08:57:03.383Z,5.00
2018-06-14T08:59:31.821Z,6.03
2018-06-14T09:02:00.064Z,6.17
2018-06-14T09:04:28.588Z,4.63
2018-06-14T09:06:56.857Z,5.80
2018-06-14T09:09:25.256Z,6.67
2018-06-14T09:11:53.533Z,6.73
2018-06-14T09:14:21.771Z,6.87
2018-06-14T09:16:50.048Z,6.00
2018-06-14T09:19:18.392Z,5.40
2018-06-14T09:21:46.724Z,5.50
2018-06-14T09:24:15.014Z,5.13
2018-06-14T09:26:43.821Z,5.70
2018-06-14T09:29:12.194Z,6.50
2018-06-14T09:31:40.554Z,5.67
2018-06-14T09:34:08.840Z,4.20
2018-06-14T09:36:37.098Z,6.53
2018-06-14T09:39:06.655Z,5.33
2018-06-14T09:41:34.923Z,5.67
2018-06-14T09:44:03.215Z,5.30
2018-06-14T09:46:31.446Z,5.20
2018-06-14T09:49:05.350Z,4.50
2018-06-14T09:51:33.747Z,5.90
2018-06-14T09:54:02.121Z,7.47
2018-06-14T09:56:31.376Z,9.10
2018-06-14T09:59:00.760Z,6.67
2018-06-14T10:01:29.063Z,4.83
2018-06-14T10:03:57.582Z,5.80
2018-06-14T10:06:25.839Z,4.60
2018-06-14T10:08:54.204Z,4.83
2018-06-14T10:11:22.543Z,4.80
2018-06-14T10:13:50.899Z,5.37
2018-06-14T10:16:20.078Z,5.57
2018-06-14T10:18:48.401Z,4.70
2018-06-14T10:21:16.875Z,4.70
2018-06-14T10:23:45.285Z,7.43
2018-06-14T10:26:13.530Z,9.00
2018-06-14T10:28:41.778Z,4.90
2018-06-14T10:31:10.150Z,4.60
2018-06-14T10:33:38.437Z,5.60
2018-06-14T10:36:06.791Z,5.50
2018-06-14T10:38:35.062Z,8.03
2018-06-14T10:41:03.451Z,6.83
2018-06-14T10:43:31.842Z,9.20
2018-06-14T10:46:00.104Z,5.00
2018-06-14T10:48:28.484Z,5.43
2018-06-14T10:50:57.325Z,4.73
2018-06-14T10:53:25.563Z,5.30
2018-06-14T10:55:53.930Z,4.63
2018-06-14T10:58:22.205Z,8.60
2018-06-14T11:00:50.900Z,6.77
2018-06-14T11:03:19.212Z,6.20
2018-06-14T11:05:47.622Z,9.03
2018-06-14T11:08:15.883Z,6.33
2018-06-14T11:10:44.175Z,4.53
2018-06-14T11:13:12.450Z,5.40
2018-06-14T11:15:40.738Z,5.13
2018-06-14T11:18:09.067Z,5.23
2018-06-14T11:20:37.495Z,4.83
2018-06-14T11:23:05.736Z,5.33
2018-06-14T11:25:34.064Z,5.70
2018-06-14T11:28:02.455Z,6.03
2018-06-14T11:30:30.801Z,5.40
2018-06-14T11:32:59.161Z,5.73
2018-06-14T11:35:27.461Z,6.93
2018-06-14T11:37:55.790Z,4.80
2018-06-14T11:40:24.106Z,5.80
2018-06-14T11:42:52.460Z,6.30
2018-06-14T11:45:20.748Z,5.53
2018-06-14T11:47:49.087Z,4.90
2018-06-14T11:50:17.370Z,6.20
2018-06-14T11:52:45.615Z,5.13
2018-06-14T11:55:13.958Z,4.73
2018-06-14T11:57:42.275Z,5.20
2018-06-14T12:00:10.806Z,5.07
2018-06-14T12:02:39.141Z,6.43
2018-06-14T12:05:07.411Z,6.30
2018-06-14T12:07:35.647Z,4.60
2018-06-14T12:10:03.943Z,4.43
2018-06-14T12:12:32.300Z,5.17
2018-06-14T12:15:00.583Z,4.97
2018-06-14T12:17:28.867Z,6.70
2018-06-14T12:19:57.163Z,5.60
2018-06-14T12:22:25.525Z,3.63
2018-06-14T12:24:53.838Z,4.70
2018-06-14T12:27:22.176Z,5.70
2018-06-14T12:29:50.512Z,4.57
2018-06-14T12:32:18.913Z,4.80
2018-06-14T12:34:47.284Z,4.87
2018-06-14T12:37:15.511Z,4.53
2018-06-14T12:39:44.131Z,5.13
2018-06-14T12:42:12.698Z,5.20
2018-06-14T12:44:41.011Z,4.70
2018-06-14T12:47:09.570Z,4.77
2018-06-14T12:49:37.918Z,3.73
2018-06-14T12:52:06.395Z,3.67
2018-06-14T12:54:35.179Z,6.13
2018-06-14T12:57:03.499Z,4.23
2018-06-14T12:59:31.783Z,5.13
2018-06-14T13:02:00.203Z,4.23
2018-06-14T13:04:28.509Z,4.57
2018-06-14T13:06:56.770Z,4.17
2018-06-14T13:09:25.088Z,3.63
2018-06-14T13:11:53.479Z,4.20
2018-06-14T13:14:21.758Z,4.40
2018-06-14T13:16:50.098Z,4.40
2018-06-14T13:19:18.365Z,5.57
2018-06-14T13:21:46.786Z,4.13
2018-06-14T13:24:16.066Z,4.60
2018-06-14T13:26:44.411Z,3.87
2018-06-14T13:29:12.651Z,4.70
2018-06-14T13:31:40.966Z,4.13
2018-06-14T13:34:09.179Z,5.33
2018-06-14T13:36:37.520Z,4.60
2018-06-14T13:39:06.680Z,6.03
2018-06-14T13:41:35.109Z,4.67
2018-06-14T13:44:03.458Z,5.27
2018-06-14T13:46:31.768Z,4.97
2018-06-14T13:49:00.140Z,4.90
2018-06-14T13:51:28.406Z,5.10
2018-06-14T13:53:56.725Z,4.20
2018-06-14T13:56:24.968Z,4.93
2018-06-14T13:58:53.278Z,4.80
2018-06-14T14:01:21.621Z,4.13
2018-06-14T14:03:49.890Z,4.60
2018-06-14T14:06:18.276Z,4.90
2018-06-14T14:08:46.592Z,4.00
2018-06-14T14:11:14.772Z,3.70
2018-06-14T14:13:43.071Z,8.03
2018-06-14T14:16:11.385Z,6.90
2018-06-14T14:18:39.629Z,5.47
2018-06-14T14:21:08.026Z,7.30
2018-06-14T14:23:36.462Z,4.57
2018-06-14T14:26:04.808Z,5.70
2018-06-14T14:28:33.079Z,4.93
2018-06-14T14:31:01.640Z,5.63
2018-06-14T14:33:30.154Z,6.37
2018-06-14T14:35:58.515Z,4.80
2018-06-14T14:38:26.903Z,6.70
2018-06-14T14:40:55.276Z,5.63
2018-06-14T14:43:24.257Z,7.00
2018-06-14T14:45:52.552Z,6.00
2018-06-14T14:48:20.926Z,4.40
2018-06-14T14:50:49.545Z,6.47
2018-06-14T14:53:18.116Z,5.60
2018-06-14T14:55:46.821Z,6.80
2018-06-14T14:58:15.327Z,5.80
2018-06-14T15:00:43.918Z,6.10
2018-06-14T15:03:12.544Z,6.20
2018-06-14T15:05:41.274Z,6.20
2018-06-14T15:08:10.016Z,7.77
2018-06-14T15:10:38.819Z,6.17
2018-06-14T15:13:07.976Z,8.53
2018-06-14T15:15:36.956Z,7.77
2018-06-14T15:18:05.940Z,8.07
2018-06-14T15:20:34.791Z,7.20
2018-06-14T15:23:03.919Z,9.30
2018-06-14T15:25:32.950Z,7.50
2018-06-14T15:28:01.945Z,9.10
2018-06-14T15:30:30.933Z,9.23
2018-06-14T15:32:59.839Z,8.87
2018-06-14T15:35:29.663Z,8.73
2018-06-14T15:37:58.519Z,8.83
2018-06-14T15:40:27.511Z,9.77
2018-06-14T15:42:56.490Z,8.93
2018-06-14T15:45:25.525Z,9.53
2018-06-14T15:47:54.401Z,10.00
2018-06-14T15:50:23.313Z,9.00
2018-06-14T15:52:52.277Z,10.40
2018-06-14T15:55:26.035Z,10.87
2018-06-14T15:57:54.367Z,8.13
2018-06-14T16:00:22.762Z,10.00
2018-06-14T16:02:51.203Z,9.53
2018-06-14T16:05:20.644Z,8.20
2018-06-14T16:07:49.267Z,8.80
2018-06-14T16:10:17.599Z,8.83
2018-06-14T16:12:46.816Z,8.47
2018-06-14T16:15:15.638Z,10.10
2018-06-14T16:17:44.359Z,9.90
2018-06-14T16:20:13.187Z,10.23
2018-06-14T16:22:41.512Z,10.40
2018-06-14T16:25:10.157Z,9.37
2018-06-14T16:27:38.645Z,10.23
2018-06-14T16:30:07.263Z,11.40
2018-06-14T16:32:35.627Z,10.57
2018-06-14T16:35:04.519Z,10.03
2018-06-14T16:37:33.116Z,8.60
2018-06-14T16:40:01.882Z,10.83
2018-06-14T16:42:30.255Z,9.13
2018-06-14T16:44:58.666Z,10.90
2018-06-14T16:47:27.191Z,8.00
2018-06-14T16:49:55.686Z,11.00
2018-06-14T16:52:24.215Z,8.80
2018-06-14T16:54:52.610Z,9.40
2018-06-14T16:57:21.109Z,9.60
2018-06-14T16:59:49.394Z,9.50
2018-06-14T17:02:17.760Z,7.30
2018-06-14T17:04:46.158Z,12.07
2018-06-14T17:07:14.525Z,9.20
2018-06-14T17:09:42.846Z,10.80
2018-06-14T17:12:11.188Z,7.30
2018-06-14T17:14:39.621Z,7.33
2018-06-14T17:17:08.010Z,10.70
2018-06-14T17:19:36.420Z,9.07
2018-06-14T17:22:04.703Z,8.47
2018-06-14T17:24:33.035Z,11.50
2018-06-14T17:27:01.403Z,8.80
2018-06-14T17:29:29.773Z,9.20
2018-06-14T17:31:58.105Z,10.63
2018-06-14T17:34:26.482Z,9.47
2018-06-14T17:36:54.672Z,8.50
2018-06-14T17:39:23.043Z,8.00
2018-06-14T17:41:51.337Z,8.30
2018-06-14T17:44:19.694Z,7.07
2018-06-14T17:46:48.095Z,9.57
2018-06-14T17:49:16.476Z,10.07
2018-06-14T17:51:44.900Z,9.57
2018-06-14T17:54:13.417Z,10.17
2018-06-14T17:56:41.775Z,8.77
2018-06-14T17:59:10.296Z,8.17
2018-06-14T18:01:38.795Z,10.23
2018-06-14T18:04:07.065Z,9.33
2018-06-14T18:06:35.433Z,8.67
2018-06-14T18:09:04.049Z,9.30
2018-06-14T18:11:32.427Z,9.43
2018-06-14T18:14:00.758Z,11.47
2018-06-14T18:16:29.123Z,9.20
2018-06-14T18:18:57.582Z,11.97
2018-06-14T18:21:26.024Z,9.77
2018-06-14T18:23:54.475Z,9.40
2018-06-14T18:26:22.810Z,9.33
2018-06-14T18:28:51.709Z,9.07
2018-06-14T18:31:19.970Z,9.77
2018-06-14T18:33:48.749Z,9.40
2018-06-14T18:36:17.104Z,8.70
2018-06-14T18:38:45.474Z,7.53
2018-06-14T18:41:13.764Z,7.53
2018-06-14T18:43:42.225Z,9.57
2018-06-14T18:46:10.566Z,8.67
2018-06-14T18:48:38.925Z,10.60
2018-06-14T18:51:07.281Z,8.83
2018-06-14T18:53:35.611Z,8.40
2018-06-14T18:56:04.013Z,9.13
2018-06-14T18:58:32.310Z,8.23
2018-06-14T19:01:00.635Z,10.50
2018-06-14T19:03:29.435Z,9.73
2018-06-14T19:05:57.728Z,8.87
2018-06-14T19:08:26.115Z,9.03
2018-06-14T19:10:54.429Z,7.33
2018-06-14T19:13:22.756Z,11.37
2018-06-14T19:15:51.044Z,8.57
2018-06-14T19:18:20.267Z,12.40
2018-06-14T19:20:48.743Z,11.10
2018-06-14T19:23:17.084Z,10.33
2018-06-14T19:25:45.527Z,8.90
2018-06-14T19:28:13.916Z,12.00
2018-06-14T19:30:42.246Z,10.57
2018-06-14T19:33:10.735Z,10.00
2018-06-14T19:35:39.022Z,13.20
2018-06-14T19:38:07.453Z,10.87
2018-06-14T19:40:35.853Z,10.83
2018-06-14T19:43:04.182Z,9.90
2018-06-14T19:45:32.620Z,10.73
2018-06-14T19:48:00.880Z,9.80
2018-06-14T19:50:29.315Z,13.63
2018-06-14T19:52:57.594Z,12.60
2018-06-14T19:55:25.914Z,12.80
2018-06-14T19:57:54.155Z,13.03
2018-06-14T20:00:22.452Z,11.63
2018-06-14T20:02:50.817Z,12.97
2018-06-14T20:05:19.233Z,12.33
2018-06-14T20:07:47.607Z,12.27
2018-06-14T20:10:15.999Z,13.50
2018-06-14T20:12:44.603Z,12.23
2018-06-14T20:15:12.984Z,15.07
2018-06-14T20:17:41.408Z,13.40
2018-06-14T20:20:10.527Z,15.10
2018-06-14T20:22:38.915Z,14.90
2018-06-14T20:25:07.274Z,15.10
2018-06-14T20:27:35.647Z,16.07
2018-06-14T20:30:04.046Z,15.83
2018-06-14T20:32:32.459Z,14.77
2018-06-14T20:35:00.857Z,17.40
2018-06-14T20:37:29.227Z,19.33
2018-06-14T20:39:57.621Z,17.60
2018-06-14T20:42:25.995Z,16.30
2018-06-14T20:44:54.278Z,17.43
2018-06-14T20:47:22.552Z,16.47
2018-06-14T20:49:51.745Z,16.00
2018-06-14T20:52:20.142Z,19.87
2018-06-14T20:54:48.595Z,19.73
2018-06-14T20:57:16.887Z,18.53
2018-06-14T20:59:45.219Z,21.40
2018-06-14T21:02:13.558Z,17.37
2018-06-14T21:04:41.943Z,19.77
2018-06-14T21:07:10.409Z,20.90
2018-06-14T21:09:38.763Z,19.27
2018-06-14T21:12:07.100Z,21.77
2018-06-14T21:14:35.387Z,19.90
2018-06-14T21:17:03.709Z,20.73
2018-06-14T21:19:32.064Z,21.33
2018-06-14T21:22:00.434Z,19.73
2018-06-14T21:24:28.809Z,18.27
2018-06-14T21:26:57.074Z,17.57
2018-06-14T21:29:25.318Z,20.57
2018-06-14T21:31:53.633Z,18.43
2018-06-14T21:34:22.028Z,17.40
2018-06-14T21:36:50.329Z,19.37
2018-06-14T21:39:18.618Z,17.97
2018-06-14T21:41:47.000Z,16.70
2018-06-14T21:44:15.426Z,16.30
2018-06-14T21:46:43.694Z,18.73
2018-06-14T21:49:12.237Z,18.50
2018-06-14T21:51:40.611Z,19.10
2018-06-14T21:54:08.869Z,17.07
2018-06-14T21:56:37.295Z,17.43
2018-06-14T21:59:05.738Z,19.90
2018-06-14T22:01:34.153Z,16.80
2018-06-14T22:04:02.961Z,15.60
2018-06-14T22:06:31.710Z,19.50
2018-06-14T22:09:00.859Z,17.20
2018-06-14T22:11:29.116Z,18.27
2018-06-14T22:13:57.497Z,19.53
2018-06-14T22:16:25.915Z,20.30
2018-06-14T22:18:54.269Z,21.10
2018-06-14T22:21:22.715Z,19.10
2018-06-14T22:23:50.969Z,20.20
2018-06-14T22:26:19.400Z,17.97
2018-06-14T22:28:47.736Z,18.07
2018-06-14T22:31:16.069Z,18.43
2018-06-14T22:33:49.910Z,18.90
2018-06-14T22:36:18.387Z,21.87
2018-06-14T22:38:46.960Z,20.90
2018-06-14T22:41:15.356Z,18.87
2018-06-14T22:43:44.173Z,18.80
2018-06-14T22:46:12.538Z,17.43
2018-06-14T22:48:41.009Z,23.50
2018-06-14T22:51:14.771Z,19.97
2018-06-14T22:53:43.018Z,20.83
2018-06-14T22:56:11.301Z,19.90
2018-06-14T22:58:39.765Z,21.07
2018-06-14T23:01:22.583Z,21.60
2018-06-14T23:03:50.911Z,18.83
2018-06-14T23:06:19.212Z,21.20
2018-06-14T23:08:47.575Z,22.37
2018-06-14T23:11:18.203Z,22.20
2018-06-14T23:13:46.701Z,22.17
2018-06-14T23:16:15.013Z,23.50
2018-06-14T23:18:43.252Z,24.73
2018-06-14T23:21:11.518Z,21.73
2018-06-14T23:23:39.813Z,25.97
2018-06-14T23:26:08.181Z,24.63
2018-06-14T23:28:36.508Z,22.50
2018-06-14T23:31:04.835Z,21.90
2018-06-14T23:33:33.087Z,25.70
2018-06-14T23:36:01.395Z,22.23
2018-06-14T23:38:29.803Z,24.00
2018-06-14T23:40:58.191Z,23.63
2018-06-14T23:43:26.456Z,22.30
2018-06-14T23:45:54.709Z,21.97
2018-06-14T23:48:22.934Z,24.20
2018-06-14T23:50:51.252Z,25.90
2018-06-14T23:53:19.463Z,22.87
2018-06-14T23:55:47.733Z,23.27
2018-06-14T23:58:16.044Z,27.10
